createdAt,value
2023-01-06T00:02:18.432Z,96222.22
2023-01-06T00:07:20.967Z,96228.69
2023-01-06T00:12:23.345Z,96222.41
2023-01-06T00:17:25.629Z,96258.00
2023-01-06T00:22:27.950Z,96242.81
2023-01-06T00:27:32.052Z,96244.03
2023-01-06T00:32:34.485Z,96224.50
2023-01-06T00:37:36.827Z,96262.41
2023-01-06T00:42:38.958Z,96256.31
2023-01-06T00:47:41.413Z,96238.44
2023-01-06T00:52:43.706Z,96253.03
2023-01-06T00:57:45.901Z,96221.31
2023-01-06T01:02:48.941Z,96238.44
2023-01-06T01:07:51.258Z,96215.09
2023-01-06T01:12:53.613Z,96195.59
2023-01-06T01:17:55.821Z,96184.94
2023-01-06T01:22:58.141Z,96228.47
2023-01-06T01:28:00.400Z,96245.91
2023-01-06T01:33:02.637Z,96275.06
2023-01-06T01:38:05.095Z,96290.69
2023-01-06T01:43:12.394Z,96311.00
2023-01-06T01:48:35.921Z,96317.44
2023-01-06T01:53:50.175Z,96331.97
2023-01-06T01:59:03.733Z,96330.25
2023-01-06T02:04:06.599Z,96304.03
2023-01-06T02:09:26.616Z,96327.50
2023-01-06T02:14:29.397Z,96306.34
2023-01-06T02:20:07.297Z,96337.34
2023-01-06T02:25:28.708Z,96325.94
2023-01-06T02:31:25.157Z,96333.31
2023-01-06T02:36:34.498Z,96343.31
2023-01-06T02:41:47.035Z,96352.94
2023-01-06T02:47:05.015Z,96340.50
2023-01-06T02:52:19.714Z,96348.59
2023-01-06T02:57:36.880Z,96328.88
2023-01-06T03:02:42.934Z,96351.94
2023-01-06T03:07:47.040Z,96317.38
2023-01-06T03:12:55.951Z,96363.47
2023-01-06T03:17:59.128Z,96370.56
2023-01-06T03:23:01.708Z,96359.31
2023-01-06T03:28:04.129Z,96350.78
2023-01-06T03:33:18.152Z,96345.09
2023-01-06T03:39:11.497Z,96365.94
2023-01-06T03:44:26.319Z,96356.88
2023-01-06T03:49:35.578Z,96351.31
2023-01-06T03:54:45.866Z,96339.78
2023-01-06T03:59:55.791Z,96351.63
2023-01-06T04:05:10.549Z,96355.75
2023-01-06T04:10:15.105Z,96363.06
2023-01-06T04:15:23.373Z,96380.88
2023-01-06T04:20:30.193Z,96385.28
2023-01-06T04:25:44.183Z,96348.47
2023-01-06T04:30:58.884Z,96394.19
2023-01-06T04:36:02.598Z,96388.81
2023-01-06T04:41:05.338Z,96354.44
2023-01-06T04:46:08.183Z,96340.22
2023-01-06T04:51:11.730Z,96411.06
2023-01-06T04:56:14.413Z,96419.72
2023-01-06T05:01:16.837Z,96423.03
2023-01-06T05:06:20.567Z,96434.88
2023-01-06T05:11:25.393Z,96453.00
2023-01-06T05:16:33.202Z,96445.59
2023-01-06T05:21:35.622Z,96420.22
2023-01-06T05:26:37.909Z,96415.16
2023-01-06T05:31:40.234Z,96418.13
2023-01-06T05:36:42.609Z,96425.72
2023-01-06T05:41:45.510Z,96434.56
2023-01-06T05:46:47.999Z,96465.31
2023-01-06T05:51:50.373Z,96465.78
2023-01-06T05:56:52.713Z,96449.72
2023-01-06T06:01:54.983Z,96424.53
2023-01-06T06:06:57.334Z,96446.34
2023-01-06T06:11:59.658Z,96436.09
2023-01-06T06:17:02.373Z,96457.19
2023-01-06T06:22:04.771Z,96435.38
2023-01-06T06:27:07.026Z,96484.84
2023-01-06T06:32:09.471Z,96468.19
2023-01-06T06:37:22.479Z,96468.03
2023-01-06T06:42:26.614Z,96467.63
2023-01-06T06:47:28.995Z,96511.91
2023-01-06T06:52:31.190Z,96481.16
2023-01-06T06:57:33.390Z,96511.75
2023-01-06T07:02:35.939Z,96496.72
2023-01-06T07:07:38.616Z,96482.88
2023-01-06T07:13:13.598Z,96506.94
2023-01-06T07:18:15.894Z,96508.50
2023-01-06T07:23:18.226Z,96503.78
2023-01-06T07:28:27.227Z,96524.50
2023-01-06T07:33:30.009Z,96502.94
2023-01-06T07:38:32.914Z,96504.75
2023-01-06T07:43:35.419Z,96517.41
2023-01-06T07:48:37.984Z,96500.75
2023-01-06T07:53:43.372Z,96509.31
2023-01-06T07:58:45.905Z,96522.28
2023-01-06T08:03:48.164Z,96461.78
2023-01-06T08:08:50.492Z,96510.75
2023-01-06T08:13:52.888Z,96476.03
2023-01-06T08:18:55.259Z,96527.75
2023-01-06T08:23:57.711Z,96473.19
2023-01-06T08:29:00.085Z,96514.56
2023-01-06T08:34:02.390Z,96478.19
2023-01-06T08:39:04.874Z,96502.22
2023-01-06T08:44:08.155Z,96516.63
2023-01-06T08:49:10.554Z,96528.66
2023-01-06T08:54:14.888Z,96494.69
2023-01-06T08:59:18.362Z,96496.19
2023-01-06T09:04:20.886Z,96517.34
2023-01-06T09:09:23.458Z,96490.16
2023-01-06T09:14:25.960Z,96533.91
2023-01-06T09:19:28.426Z,96544.84
2023-01-06T09:24:30.797Z,96511.09
2023-01-06T09:29:34.789Z,96497.22
2023-01-06T09:34:37.195Z,96511.09
2023-01-06T09:39:40.179Z,96551.16
2023-01-06T09:44:59.200Z,96502.81
2023-01-06T09:50:17.643Z,96554.56
2023-01-06T09:55:29.020Z,96537.13
2023-01-06T10:00:40.230Z,96485.00
2023-01-06T10:06:07.816Z,96567.28
2023-01-06T10:11:24.416Z,96540.75
2023-01-06T10:16:46.579Z,96535.13
2023-01-06T10:27:38.157Z,96563.00
2023-01-06T10:32:42.841Z,96505.34
2023-01-06T10:37:49.178Z,96543.66
2023-01-06T10:43:04.115Z,96521.03
2023-01-06T10:48:11.465Z,96514.41
2023-01-06T10:53:15.879Z,96538.59
2023-01-06T10:58:36.446Z,96486.63
2023-01-06T11:03:43.393Z,96514.19
2023-01-06T11:08:48.474Z,96492.69
2023-01-06T11:13:53.738Z,96519.03
2023-01-06T11:26:14.712Z,96518.31
2023-01-06T11:31:22.251Z,96518.00
2023-01-06T11:36:29.204Z,96507.28
2023-01-06T11:41:36.852Z,96477.44
2023-01-06T11:46:46.503Z,96431.34
2023-01-06T11:51:50.055Z,96481.00
2023-01-06T11:57:00.525Z,96480.44
2023-01-06T12:02:02.911Z,96482.16
2023-01-06T12:07:38.438Z,96471.00
2023-01-06T12:12:40.813Z,96492.09
2023-01-06T12:17:52.945Z,96462.56
2023-01-06T12:22:59.079Z,96508.84
2023-01-06T12:28:06.615Z,96503.88
2023-01-06T12:33:40.084Z,96490.63
2023-01-06T12:38:56.789Z,96494.50
2023-01-06T12:44:18.131Z,96530.06
2023-01-06T12:49:35.602Z,96536.59
2023-01-06T12:54:38.571Z,96498.81
2023-01-06T13:00:14.609Z,96556.97
2023-01-06T13:05:26.843Z,96542.56
2023-01-06T13:10:35.065Z,96567.56
2023-01-06T13:15:41.086Z,96573.72
2023-01-06T13:20:48.892Z,96540.59
2023-01-06T13:26:09.714Z,96587.38
2023-01-06T13:31:50.782Z,96585.16
2023-01-06T13:37:22.459Z,96588.03
2023-01-06T13:42:45.659Z,96613.84
2023-01-06T13:47:50.892Z,96636.97
2023-01-06T13:52:55.155Z,96622.50
2023-01-06T13:57:59.268Z,96615.38
2023-01-06T14:03:13.592Z,96651.53
2023-01-06T14:08:19.870Z,96620.09
2023-01-06T14:13:26.682Z,96626.22
2023-01-06T14:18:34.857Z,96613.22
2023-01-06T14:23:37.670Z,96602.56
2023-01-06T14:28:40.012Z,96651.47
2023-01-06T14:33:45.097Z,96647.91
2023-01-06T14:38:51.884Z,96681.94
2023-01-06T14:44:01.161Z,96692.41
2023-01-06T14:49:06.423Z,96655.56
2023-01-06T14:54:14.604Z,96643.34
2023-01-06T14:59:16.851Z,96714.97
2023-01-06T15:04:24.286Z,96681.53
2023-01-06T15:09:26.843Z,96683.63
2023-01-06T15:14:34.075Z,96738.06
2023-01-06T15:19:36.980Z,96693.19
2023-01-06T15:24:43.221Z,96701.94
2023-01-06T15:29:57.312Z,96713.38
2023-01-06T15:35:00.337Z,96724.13
2023-01-06T15:40:05.059Z,96714.66
2023-01-06T15:45:22.548Z,96754.28
2023-01-06T15:55:51.659Z,96783.47
2023-01-06T16:01:01.663Z,96750.09
2023-01-06T16:06:12.994Z,96755.56
2023-01-06T16:11:17.983Z,96822.59
2023-01-06T16:16:20.450Z,96836.69
2023-01-06T16:21:26.734Z,96834.06
2023-01-06T16:26:33.255Z,96814.22
2023-01-06T16:31:39.939Z,96835.63
2023-01-06T16:36:42.619Z,96825.88
2023-01-06T16:42:00.369Z,96860.25
2023-01-06T16:47:02.975Z,96844.47
2023-01-06T16:52:06.624Z,96831.38
2023-01-06T16:57:11.888Z,96832.47
2023-01-06T17:02:19.364Z,96855.28
2023-01-06T17:07:22.180Z,96862.66
2023-01-06T17:12:43.307Z,96861.31
2023-01-06T17:17:45.633Z,96861.84
2023-01-06T17:22:49.951Z,96867.75
2023-01-06T17:27:56.097Z,96857.66
2023-01-06T17:32:58.241Z,96871.06
2023-01-06T17:38:08.260Z,96881.69
2023-01-06T17:43:27.668Z,96901.72
2023-01-06T17:48:30.204Z,96880.41
2023-01-06T17:53:55.708Z,96918.91
2023-01-06T17:59:05.596Z,96915.03
2023-01-06T18:04:14.496Z,96919.00
2023-01-06T18:09:23.699Z,96904.44
2023-01-06T18:14:26.181Z,96924.28
2023-01-06T18:19:37.998Z,96919.97
2023-01-06T18:24:42.031Z,96882.28
2023-01-06T18:29:44.930Z,96914.00
2023-01-06T18:34:52.825Z,96909.63
2023-01-06T18:40:02.744Z,96917.34
2023-01-06T18:45:08.040Z,96921.22
2023-01-06T18:50:26.072Z,96925.81
2023-01-06T18:55:57.934Z,96925.91
2023-01-06T19:01:03.067Z,96937.88
2023-01-06T19:06:11.465Z,96949.22
2023-01-06T19:11:20.131Z,96944.56
2023-01-06T19:16:47.466Z,96941.63
2023-01-06T19:21:50.944Z,96966.28
2023-01-06T19:26:54.568Z,96941.56
2023-01-06T19:32:00.074Z,96941.78
2023-01-06T19:37:02.280Z,96924.72
2023-01-06T19:42:27.389Z,96913.38
2023-01-06T19:47:36.178Z,96927.38
2023-01-06T19:52:40.692Z,96920.81
2023-01-06T19:57:48.309Z,96913.19
2023-01-06T20:02:57.139Z,96911.16
2023-01-06T20:07:59.565Z,96944.81
2023-01-06T20:13:01.683Z,96931.28
2023-01-06T20:18:03.754Z,96929.06
2023-01-06T20:23:07.222Z,96898.56
2023-01-06T20:28:09.504Z,96942.78
2023-01-06T20:33:14.459Z,96927.16
2023-01-06T20:38:16.669Z,96938.22
2023-01-06T20:43:22.300Z,96904.56
2023-01-06T20:48:24.631Z,96944.13
2023-01-06T20:53:32.044Z,96912.81
2023-01-06T20:58:34.332Z,96908.78
2023-01-06T21:03:39.717Z,96888.59
2023-01-06T21:08:42.139Z,96900.25
2023-01-06T21:13:44.812Z,96917.59
2023-01-06T21:18:47.885Z,96943.38
2023-01-06T21:23:49.985Z,96952.19
2023-01-06T21:28:52.361Z,96943.66
2023-01-06T21:33:59.552Z,96983.94
2023-01-06T21:39:01.748Z,96955.59
2023-01-06T21:44:04.161Z,96942.34
2023-01-06T21:49:07.577Z,96950.47
2023-01-06T21:54:19.166Z,96960.75
2023-01-06T21:59:21.332Z,96934.28
2023-01-06T22:04:23.903Z,96971.28
2023-01-06T22:09:28.328Z,96959.34
2023-01-06T22:14:31.902Z,96986.59
2023-01-06T22:19:34.828Z,96961.09
2023-01-06T22:24:37.017Z,96954.91
2023-01-06T22:29:39.193Z,96950.50
2023-01-06T22:34:44.840Z,96950.78
2023-01-06T22:39:47.106Z,96957.75
2023-01-06T22:44:50.774Z,96972.66
2023-01-06T22:49:52.917Z,96976.06
2023-01-06T22:54:55.359Z,96975.91
2023-01-06T22:59:58.727Z,96945.97
2023-01-06T23:05:00.824Z,96947.81
2023-01-06T23:10:03.125Z,96947.81
2023-01-06T23:15:06.709Z,96964.97
2023-01-06T23:20:09.342Z,96965.19
2023-01-06T23:25:11.943Z,96971.88
2023-01-06T23:30:14.448Z,96953.19
2023-01-06T23:35:16.745Z,96965.00
2023-01-06T23:40:19.029Z,96959.72
2023-01-06T23:45:21.328Z,96948.75
2023-01-06T23:50:23.453Z,96957.56
2023-01-06T23:55:25.832Z,96954.94
